Vunisea, Fiji
Current Conditions -  °F | °C
As of 9:00 PM on Friday 28 Nov 2014 (Local Time) from NFNA Reporting Station
Scattered Clouds Scattered Clouds  
Wind Chill: 26°   Ceiling: Unl
Heat Index: 28°   Visibility: 6mi
Dew Point: 23°   Wind: 5mph
Humidity: 83%   Direction: 110°ESE
Pressure: 29.8"   Gusts: NA
Location:  19.05°S, 178.17°E
Report Text: NFNA 280900Z 11004KT 9999 SCT022 26/23 Q1009
Loading
Personal Weather Stations






























Interactive Weather Map New forecast layout! Learn more

10-Day Weather Forecast

Advertisements
Track Severe Weather on mobile